createdAt,value
2022-08-31T00:00:11.176Z,3.90
2022-08-31T00:02:57.257Z,4.93
2022-08-31T00:05:24.362Z,3.05
2022-08-31T00:07:51.872Z,3.75
2022-08-31T00:10:32.793Z,4.47
2022-08-31T00:13:03.810Z,5.25
2022-08-31T00:15:30.880Z,4.28
2022-08-31T00:17:58.369Z,4.07
2022-08-31T00:20:33.078Z,4.50
2022-08-31T00:23:05.624Z,3.38
2022-08-31T00:25:34.248Z,4.32
2022-08-31T00:28:01.308Z,4.65
2022-08-31T00:30:28.312Z,4.97
2022-08-31T00:32:58.292Z,3.65
2022-08-31T00:35:27.000Z,3.35
2022-08-31T00:37:53.856Z,2.15
2022-08-31T00:40:20.984Z,2.90
2022-08-31T00:42:47.688Z,6.07
2022-08-31T00:45:14.925Z,3.10
2022-08-31T00:47:41.760Z,2.75
2022-08-31T00:50:12.594Z,4.07
2022-08-31T00:52:45.814Z,4.20
2022-08-31T00:55:21.221Z,4.00
2022-08-31T00:57:51.273Z,3.13
2022-08-31T01:00:22.800Z,3.72
2022-08-31T01:02:50.644Z,3.28
2022-08-31T01:05:18.501Z,4.47
2022-08-31T01:07:48.679Z,4.70
2022-08-31T01:10:19.018Z,3.58
2022-08-31T01:12:47.828Z,3.20
2022-08-31T01:15:17.654Z,3.90
2022-08-31T01:17:46.359Z,3.30
2022-08-31T01:20:27.962Z,4.15
2022-08-31T01:23:23.204Z,3.60
2022-08-31T01:25:52.404Z,3.88
2022-08-31T01:28:19.584Z,4.50
2022-08-31T01:30:58.690Z,3.63
2022-08-31T01:33:25.429Z,5.05
2022-08-31T01:35:52.151Z,3.83
2022-08-31T01:38:18.916Z,3.95
2022-08-31T01:40:51.754Z,1.98
2022-08-31T01:43:18.748Z,4.90
2022-08-31T01:45:45.590Z,3.33
2022-08-31T01:48:12.606Z,4.45
2022-08-31T01:50:39.752Z,3.72
2022-08-31T01:53:06.448Z,4.07
2022-08-31T01:55:33.190Z,3.85
2022-08-31T01:58:00.581Z,4.68
2022-08-31T02:00:28.721Z,4.47
2022-08-31T02:03:01.446Z,3.20
2022-08-31T02:05:28.311Z,5.07
2022-08-31T02:07:58.066Z,4.50
2022-08-31T02:10:25.161Z,4.95
2022-08-31T02:12:52.181Z,3.83
2022-08-31T02:15:19.189Z,3.90
2022-08-31T02:17:45.977Z,3.95
2022-08-31T02:20:14.156Z,4.20
2022-08-31T02:22:40.893Z,4.38
2022-08-31T02:25:09.329Z,3.40
2022-08-31T02:27:37.106Z,4.70
2022-08-31T02:30:10.885Z,3.65
2022-08-31T02:32:37.846Z,3.78
2022-08-31T02:35:05.750Z,4.85
2022-08-31T02:37:32.612Z,4.07
2022-08-31T02:40:02.455Z,4.18
2022-08-31T02:42:52.301Z,3.55
2022-08-31T02:45:18.344Z,3.10
2022-08-31T02:47:45.045Z,3.92
2022-08-31T02:50:11.727Z,4.15
2022-08-31T02:52:38.430Z,4.00
2022-08-31T02:55:06.163Z,5.60
2022-08-31T02:57:33.107Z,5.10
2022-08-31T02:59:59.764Z,4.45
2022-08-31T03:02:32.222Z,4.00
2022-08-31T03:05:02.007Z,3.88
2022-08-31T03:07:28.688Z,4.10
2022-08-31T03:09:55.392Z,4.18
2022-08-31T03:12:22.091Z,5.75
2022-08-31T03:14:48.754Z,4.20
2022-08-31T03:17:15.435Z,4.45
2022-08-31T03:19:42.092Z,5.38
2022-08-31T03:22:08.901Z,4.97
2022-08-31T03:24:35.556Z,4.30
2022-08-31T03:27:02.264Z,4.90
2022-08-31T03:29:29.048Z,4.30
2022-08-31T03:31:55.746Z,4.78
2022-08-31T03:34:22.542Z,4.40
2022-08-31T03:36:49.325Z,4.72
2022-08-31T03:39:16.082Z,5.80
2022-08-31T03:41:42.887Z,5.30
2022-08-31T03:44:09.636Z,5.10
2022-08-31T03:46:36.390Z,4.50
2022-08-31T03:49:03.739Z,4.78
2022-08-31T03:51:30.869Z,5.45
2022-08-31T03:53:57.608Z,5.53
2022-08-31T03:56:24.311Z,5.80
2022-08-31T03:58:51.441Z,5.22
2022-08-31T04:01:18.226Z,5.13
2022-08-31T04:03:44.930Z,6.28
2022-08-31T04:06:13.329Z,5.13
2022-08-31T04:08:41.087Z,4.93
2022-08-31T04:11:14.472Z,5.60
2022-08-31T04:13:41.895Z,6.32
2022-08-31T04:16:12.133Z,4.95
2022-08-31T04:18:43.046Z,5.57
2022-08-31T04:21:21.586Z,7.43
2022-08-31T04:23:49.518Z,4.15
2022-08-31T04:26:37.448Z,6.32
2022-08-31T04:29:07.647Z,4.90
2022-08-31T04:31:37.118Z,5.05
2022-08-31T04:34:05.398Z,5.75
2022-08-31T04:36:32.217Z,5.78
2022-08-31T04:39:01.533Z,4.25
2022-08-31T04:41:30.241Z,5.07
2022-08-31T04:44:00.023Z,5.30
2022-08-31T04:46:27.925Z,4.35
2022-08-31T04:48:54.938Z,5.47
2022-08-31T04:51:27.502Z,5.07
2022-08-31T04:53:54.736Z,5.65
2022-08-31T04:56:27.692Z,7.20
2022-08-31T04:58:57.549Z,5.05
2022-08-31T05:01:26.245Z,7.57
2022-08-31T05:03:55.228Z,5.22
2022-08-31T05:06:24.955Z,4.88
2022-08-31T05:08:55.906Z,5.72
2022-08-31T05:11:25.116Z,5.63
2022-08-31T05:13:52.949Z,5.75
2022-08-31T05:16:20.669Z,5.28
2022-08-31T05:18:49.465Z,6.65
2022-08-31T05:21:19.294Z,4.93
2022-08-31T05:23:48.498Z,6.65
2022-08-31T05:26:26.475Z,6.35
2022-08-31T05:28:54.658Z,5.65
2022-08-31T05:31:21.923Z,5.55
2022-08-31T05:33:49.329Z,5.15
2022-08-31T05:36:16.881Z,6.82
2022-08-31T05:38:43.793Z,4.57
2022-08-31T05:41:11.190Z,6.30
2022-08-31T05:43:38.683Z,5.15
2022-08-31T05:46:10.766Z,6.18
2022-08-31T05:48:38.116Z,4.95
2022-08-31T05:51:07.653Z,4.97
2022-08-31T05:53:39.599Z,5.32
2022-08-31T05:56:10.612Z,6.55
2022-08-31T05:58:39.391Z,5.07
2022-08-31T06:01:17.630Z,5.20
2022-08-31T06:03:44.903Z,7.72
2022-08-31T06:06:12.599Z,7.32
2022-08-31T06:08:40.806Z,6.55
2022-08-31T06:11:14.339Z,4.97
2022-08-31T06:13:41.842Z,5.38
2022-08-31T06:16:09.684Z,5.15
2022-08-31T06:18:49.480Z,6.15
2022-08-31T06:21:17.983Z,6.47
2022-08-31T06:23:44.900Z,6.75
2022-08-31T06:26:15.618Z,5.72
2022-08-31T06:28:44.335Z,5.22
2022-08-31T06:31:24.060Z,6.50
2022-08-31T06:33:52.196Z,5.53
2022-08-31T06:36:21.457Z,6.28
2022-08-31T06:38:48.254Z,4.68
2022-08-31T06:41:21.155Z,5.85
2022-08-31T06:43:48.620Z,5.28
2022-08-31T06:46:18.410Z,6.70
2022-08-31T06:48:45.266Z,7.03
2022-08-31T06:51:12.951Z,5.55
2022-08-31T06:53:42.593Z,6.18
2022-08-31T06:56:21.019Z,5.10
2022-08-31T06:58:54.100Z,7.22
2022-08-31T07:01:32.583Z,4.40
2022-08-31T07:04:07.294Z,4.25
2022-08-31T07:06:40.849Z,4.72
2022-08-31T07:09:10.022Z,4.75
2022-08-31T07:11:44.384Z,4.95
2022-08-31T07:14:13.474Z,4.40
2022-08-31T07:16:41.422Z,4.63
2022-08-31T07:19:09.635Z,4.13
2022-08-31T07:21:45.900Z,4.20
2022-08-31T07:24:15.133Z,5.43
2022-08-31T07:26:45.211Z,5.25
2022-08-31T07:29:14.922Z,6.68
2022-08-31T07:31:44.641Z,4.22
2022-08-31T07:34:16.227Z,4.70
2022-08-31T07:37:02.171Z,5.47
2022-08-31T07:39:48.676Z,4.63
2022-08-31T07:42:19.519Z,4.85
2022-08-31T07:44:53.622Z,4.47
2022-08-31T07:47:22.646Z,4.57
2022-08-31T07:49:52.806Z,7.28
2022-08-31T07:52:26.645Z,4.78
2022-08-31T07:54:56.443Z,6.20
2022-08-31T07:57:25.919Z,5.80
2022-08-31T08:00:04.288Z,4.97
2022-08-31T08:02:38.172Z,6.68
2022-08-31T08:05:07.830Z,5.43
2022-08-31T08:07:36.576Z,6.03
2022-08-31T08:10:06.903Z,5.30
2022-08-31T08:12:36.235Z,6.20
2022-08-31T08:15:06.097Z,4.70
2022-08-31T08:17:32.953Z,4.40
2022-08-31T08:19:59.700Z,4.20
2022-08-31T08:22:48.768Z,6.72
2022-08-31T08:25:14.540Z,5.25
2022-08-31T08:27:43.598Z,6.05
2022-08-31T08:30:13.629Z,4.32
2022-08-31T08:32:41.943Z,6.82
2022-08-31T08:35:10.428Z,5.32
2022-08-31T08:37:57.852Z,5.43
2022-08-31T08:40:37.095Z,5.30
2022-08-31T08:45:33.964Z,5.82
2022-08-31T08:48:01.861Z,7.28
2022-08-31T08:50:29.191Z,7.88
2022-08-31T08:52:58.891Z,6.13
2022-08-31T08:55:35.216Z,6.10
2022-08-31T08:58:05.924Z,6.10
2022-08-31T09:00:33.304Z,5.68
2022-08-31T09:03:39.229Z,6.65
2022-08-31T09:06:09.614Z,6.88
2022-08-31T09:08:55.280Z,5.82
2022-08-31T09:11:39.848Z,5.72
2022-08-31T09:16:57.643Z,6.78
2022-08-31T09:19:24.495Z,7.10
2022-08-31T09:21:57.272Z,8.70
2022-08-31T09:24:30.178Z,6.57
2022-08-31T09:27:19.068Z,6.13
2022-08-31T09:29:52.890Z,7.55
2022-08-31T09:32:24.802Z,6.85
2022-08-31T09:35:23.749Z,6.10
2022-08-31T09:38:14.590Z,6.63
2022-08-31T09:43:17.717Z,7.57
2022-08-31T09:46:05.926Z,7.43
2022-08-31T09:48:56.028Z,8.60
2022-08-31T09:51:29.313Z,7.40
2022-08-31T09:54:44.425Z,5.78
2022-08-31T09:57:13.894Z,7.03
2022-08-31T09:59:49.240Z,7.20
2022-08-31T10:02:26.910Z,7.05
2022-08-31T10:05:06.173Z,5.65
2022-08-31T10:08:04.497Z,6.57
2022-08-31T10:10:35.742Z,8.13
2022-08-31T10:13:13.070Z,6.50
2022-08-31T10:15:54.358Z,6.78
2022-08-31T10:18:32.315Z,5.20
2022-08-31T10:21:16.043Z,6.10
2022-08-31T10:24:00.072Z,5.95
2022-08-31T10:26:35.909Z,6.63
2022-08-31T10:29:31.636Z,6.13
2022-08-31T10:32:03.491Z,6.40
2022-08-31T10:37:31.537Z,5.90
2022-08-31T10:40:19.799Z,5.75
2022-08-31T10:42:59.287Z,4.97
2022-08-31T10:45:28.874Z,4.57
2022-08-31T10:47:57.172Z,6.10
2022-08-31T10:50:45.129Z,5.20
2022-08-31T10:53:15.362Z,4.90
2022-08-31T10:56:02.170Z,5.22
2022-08-31T10:58:53.991Z,4.43
2022-08-31T11:01:26.827Z,5.63
2022-08-31T11:04:18.498Z,5.70
2022-08-31T11:07:00.758Z,4.40
2022-08-31T11:09:39.456Z,4.63
2022-08-31T11:12:11.251Z,4.47
2022-08-31T11:14:44.977Z,4.80
2022-08-31T11:17:49.989Z,5.13
2022-08-31T11:20:39.855Z,4.30
2022-08-31T11:23:32.203Z,3.55
2022-08-31T11:26:31.841Z,6.93
2022-08-31T11:29:43.290Z,6.13
2022-08-31T11:32:28.642Z,3.67
2022-08-31T11:34:58.359Z,4.70
2022-08-31T11:37:53.065Z,4.65
2022-08-31T11:40:44.027Z,3.60
2022-08-31T11:43:33.615Z,4.35
2022-08-31T11:46:26.473Z,5.28
2022-08-31T11:48:53.949Z,5.93
2022-08-31T11:51:40.753Z,5.88
2022-08-31T11:54:26.642Z,5.90
2022-08-31T11:56:56.637Z,3.67
2022-08-31T11:59:25.171Z,4.50
2022-08-31T12:01:57.169Z,2.97
2022-08-31T12:04:47.377Z,4.88
2022-08-31T12:07:26.639Z,4.10
2022-08-31T12:10:17.639Z,3.92
2022-08-31T12:12:56.470Z,2.60
2022-08-31T12:15:51.350Z,4.13
2022-08-31T12:18:30.739Z,3.72
2022-08-31T12:22:02.638Z,5.13
2022-08-31T12:25:11.640Z,3.97
2022-08-31T12:27:47.199Z,3.95
2022-08-31T12:30:25.707Z,2.80
2022-08-31T12:33:14.820Z,5.50
2022-08-31T12:35:41.647Z,2.50
2022-08-31T12:38:17.272Z,4.05
2022-08-31T12:40:45.611Z,3.10
2022-08-31T12:43:19.463Z,3.33
2022-08-31T12:46:13.620Z,3.58
2022-08-31T12:49:10.990Z,3.55
2022-08-31T12:52:11.995Z,3.67
2022-08-31T12:55:08.866Z,3.20
2022-08-31T12:57:49.884Z,3.15
2022-08-31T13:00:28.761Z,3.92
2022-08-31T13:03:05.812Z,2.05
2022-08-31T13:05:35.727Z,2.17
2022-08-31T13:08:22.099Z,3.35
2022-08-31T13:10:48.904Z,2.72
2022-08-31T13:13:29.202Z,2.30
2022-08-31T13:16:04.604Z,4.18
2022-08-31T13:18:31.533Z,3.00
2022-08-31T13:21:09.380Z,2.90
2022-08-31T13:23:39.333Z,4.47
2022-08-31T13:26:14.950Z,2.72
2022-08-31T13:28:41.971Z,4.22
2022-08-31T13:31:09.529Z,2.97
2022-08-31T13:33:40.253Z,2.78
2022-08-31T13:36:14.767Z,2.75
2022-08-31T13:38:50.748Z,2.83
2022-08-31T13:41:24.280Z,3.58
2022-08-31T13:44:01.190Z,2.83
2022-08-31T13:46:42.809Z,3.13
2022-08-31T13:49:25.980Z,3.75
2022-08-31T13:51:52.870Z,3.90
2022-08-31T13:54:56.588Z,2.95
2022-08-31T13:57:25.892Z,4.00
2022-08-31T13:59:53.035Z,4.13
2022-08-31T14:02:20.218Z,4.80
2022-08-31T14:05:00.343Z,4.30
2022-08-31T14:07:39.126Z,3.15
2022-08-31T14:10:26.284Z,2.50
2022-08-31T14:12:54.695Z,2.75
2022-08-31T14:15:48.865Z,4.53
2022-08-31T14:18:32.381Z,3.55
2022-08-31T14:21:26.395Z,2.13
2022-08-31T14:23:53.111Z,3.60
2022-08-31T14:26:26.148Z,4.53
2022-08-31T14:28:56.392Z,3.13
2022-08-31T14:31:28.983Z,3.63
2022-08-31T14:34:21.961Z,3.72
2022-08-31T14:36:54.916Z,2.40
2022-08-31T14:39:33.348Z,2.30
2022-08-31T14:42:11.647Z,2.78
2022-08-31T14:44:43.545Z,2.33
2022-08-31T14:49:45.458Z,3.78
2022-08-31T14:52:13.107Z,2.58
2022-08-31T14:54:40.955Z,3.13
2022-08-31T14:57:29.255Z,3.60
2022-08-31T14:59:59.542Z,1.75
2022-08-31T15:02:33.271Z,1.63
2022-08-31T15:05:06.287Z,5.57
2022-08-31T15:07:36.273Z,2.65
2022-08-31T15:10:06.592Z,1.73
2022-08-31T15:12:34.453Z,2.60
2022-08-31T15:15:01.563Z,2.25
2022-08-31T15:17:33.604Z,2.92
2022-08-31T15:20:03.097Z,3.50
2022-08-31T15:22:31.257Z,2.20
2022-08-31T15:24:58.122Z,2.33
2022-08-31T15:27:29.009Z,2.20
2022-08-31T15:30:04.396Z,2.88
2022-08-31T15:32:31.492Z,1.75
2022-08-31T15:34:58.489Z,2.88
2022-08-31T15:37:31.595Z,4.90
2022-08-31T15:40:00.732Z,4.00
2022-08-31T15:42:29.357Z,1.92
2022-08-31T15:44:56.965Z,3.50
2022-08-31T15:47:42.197Z,4.70
2022-08-31T15:50:09.403Z,7.00
2022-08-31T15:52:37.097Z,2.67
2022-08-31T15:55:04.074Z,4.25
2022-08-31T15:57:30.934Z,4.43
2022-08-31T15:59:57.610Z,5.00
2022-08-31T16:02:24.342Z,4.72
2022-08-31T16:04:51.313Z,4.90
2022-08-31T16:07:19.034Z,2.38
2022-08-31T16:09:46.165Z,4.18
2022-08-31T16:12:14.763Z,3.30
2022-08-31T16:14:44.944Z,3.63
2022-08-31T16:17:19.967Z,2.65
2022-08-31T16:19:50.161Z,3.45
2022-08-31T16:22:18.500Z,2.78
2022-08-31T16:24:46.837Z,3.25
2022-08-31T16:27:15.995Z,2.42
2022-08-31T16:29:43.963Z,2.45
2022-08-31T16:32:10.710Z,3.55
2022-08-31T16:34:39.472Z,4.55
2022-08-31T16:37:07.688Z,3.92
2022-08-31T16:39:43.291Z,3.30
2022-08-31T16:42:12.092Z,2.80
2022-08-31T16:44:39.922Z,2.05
2022-08-31T16:47:09.315Z,4.63
2022-08-31T16:49:36.513Z,1.30
2022-08-31T16:52:13.594Z,4.32
2022-08-31T16:54:44.340Z,2.47
2022-08-31T16:57:12.867Z,2.58
2022-08-31T16:59:42.867Z,2.55
2022-08-31T17:02:12.366Z,3.05
2022-08-31T17:04:52.130Z,3.70
2022-08-31T17:07:19.822Z,3.58
2022-08-31T17:09:46.754Z,2.60
2022-08-31T17:12:17.218Z,2.47
2022-08-31T17:14:52.079Z,2.58
2022-08-31T17:17:22.040Z,2.35
2022-08-31T17:19:48.866Z,3.03
2022-08-31T17:22:23.386Z,3.42
2022-08-31T17:24:56.280Z,1.75
2022-08-31T17:27:24.098Z,2.03
2022-08-31T17:29:52.651Z,3.25
2022-08-31T17:32:26.152Z,3.03
2022-08-31T17:34:54.375Z,2.97
2022-08-31T17:37:25.036Z,1.63
2022-08-31T17:39:52.863Z,2.53
2022-08-31T17:42:21.818Z,2.90
2022-08-31T17:44:52.061Z,2.40
2022-08-31T17:47:20.859Z,2.35
2022-08-31T17:49:49.744Z,4.22
2022-08-31T17:52:20.226Z,3.20
2022-08-31T17:54:47.051Z,4.55
2022-08-31T17:57:15.837Z,2.70
2022-08-31T17:59:46.467Z,3.95
2022-08-31T18:02:17.541Z,2.90
2022-08-31T18:04:44.558Z,4.03
2022-08-31T18:07:11.854Z,3.53
2022-08-31T18:09:43.656Z,2.47
2022-08-31T18:12:10.353Z,3.50
2022-08-31T18:14:38.791Z,2.10
2022-08-31T18:17:10.758Z,2.33
2022-08-31T18:22:05.783Z,2.25
2022-08-31T18:24:36.193Z,2.35
2022-08-31T18:27:06.765Z,3.78
2022-08-31T18:29:35.851Z,2.03
2022-08-31T18:32:04.288Z,2.85
2022-08-31T18:34:34.280Z,2.65
2022-08-31T18:37:01.262Z,3.28
2022-08-31T18:39:51.005Z,2.30
2022-08-31T18:42:38.126Z,2.13
2022-08-31T18:45:20.702Z,1.63
2022-08-31T18:50:45.621Z,2.40
2022-08-31T18:53:28.479Z,2.38
2022-08-31T18:55:57.960Z,3.10
2022-08-31T18:58:24.804Z,3.08
2022-08-31T19:00:57.531Z,2.70
2022-08-31T19:03:25.726Z,2.25
2022-08-31T19:05:52.528Z,2.22
2022-08-31T19:08:19.486Z,2.30
2022-08-31T19:10:46.962Z,1.85
2022-08-31T19:13:16.209Z,3.78
2022-08-31T19:15:44.059Z,1.58
2022-08-31T19:18:10.836Z,1.83
2022-08-31T19:20:38.915Z,4.45
2022-08-31T19:23:05.726Z,2.97
2022-08-31T19:25:32.403Z,2.40
2022-08-31T19:28:01.602Z,3.22
2022-08-31T19:30:29.771Z,1.88
2022-08-31T19:32:56.774Z,3.08
2022-08-31T19:35:26.914Z,1.75
2022-08-31T19:37:54.179Z,2.60
2022-08-31T19:40:21.263Z,2.13
2022-08-31T19:45:44.935Z,1.98
2022-08-31T19:48:12.927Z,2.17
2022-08-31T19:50:42.358Z,1.98
2022-08-31T19:53:14.013Z,4.35
2022-08-31T19:55:50.780Z,3.95
2022-08-31T19:58:19.284Z,2.85
2022-08-31T20:00:48.265Z,2.38
2022-08-31T20:03:15.731Z,2.25
2022-08-31T20:05:43.302Z,2.25
2022-08-31T20:08:10.742Z,1.48
2022-08-31T20:10:45.516Z,1.70
2022-08-31T20:13:12.967Z,2.40
2022-08-31T20:15:44.631Z,3.20
2022-08-31T20:18:12.541Z,2.58
2022-08-31T20:20:45.610Z,2.60
2022-08-31T20:23:16.755Z,2.05
2022-08-31T20:25:45.380Z,2.28
2022-08-31T20:28:13.132Z,2.40
2022-08-31T20:30:41.780Z,2.72
2022-08-31T20:33:10.603Z,2.58
2022-08-31T20:35:47.073Z,2.78
2022-08-31T20:38:15.359Z,2.20
2022-08-31T20:40:43.844Z,3.40
2022-08-31T20:43:12.593Z,3.08
2022-08-31T20:45:41.247Z,3.25
2022-08-31T20:48:27.475Z,3.17
2022-08-31T20:50:55.782Z,3.55
2022-08-31T20:53:38.830Z,2.88
2022-08-31T20:56:17.185Z,13.45
2022-08-31T20:58:45.063Z,15.88
2022-08-31T21:01:13.571Z,6.70
2022-08-31T21:03:40.845Z,6.63
2022-08-31T21:06:11.219Z,2.70
2022-08-31T21:08:42.214Z,4.03
2022-08-31T21:11:17.835Z,5.45
2022-08-31T21:13:46.425Z,4.75
2022-08-31T21:16:14.882Z,4.72
2022-08-31T21:18:41.661Z,2.65
2022-08-31T21:21:12.976Z,3.92
2022-08-31T21:23:39.838Z,6.20
2022-08-31T21:26:10.200Z,3.50
2022-08-31T21:28:39.670Z,3.30
2022-08-31T21:31:15.383Z,3.05
2022-08-31T21:33:45.994Z,4.53
2022-08-31T21:36:15.462Z,3.42
2022-08-31T21:38:43.970Z,2.63
2022-08-31T21:41:12.862Z,2.70
2022-08-31T21:43:40.611Z,2.55
2022-08-31T21:46:21.366Z,3.03
2022-08-31T21:48:49.456Z,2.70
2022-08-31T21:51:20.535Z,2.00
2022-08-31T21:53:49.938Z,2.55
2022-08-31T21:56:17.786Z,3.70
2022-08-31T21:58:44.719Z,3.58
2022-08-31T22:01:13.451Z,1.35
2022-08-31T22:03:40.583Z,4.70
2022-08-31T22:06:12.749Z,1.52
2022-08-31T22:08:40.743Z,1.63
2022-08-31T22:11:09.787Z,1.70
2022-08-31T22:13:37.011Z,1.40
2022-08-31T22:16:13.307Z,3.03
2022-08-31T22:19:03.414Z,4.45
2022-08-31T22:21:34.155Z,2.72
2022-08-31T22:24:05.829Z,4.95
2022-08-31T22:26:38.156Z,4.15
2022-08-31T22:29:06.474Z,3.35
2022-08-31T22:31:37.233Z,4.45
2022-08-31T22:34:05.428Z,2.45
2022-08-31T22:36:32.822Z,4.13
2022-08-31T22:39:03.491Z,4.55
2022-08-31T22:41:32.686Z,1.85
2022-08-31T22:44:00.344Z,2.15
2022-08-31T22:46:28.312Z,1.67
2022-08-31T22:48:55.484Z,2.70
2022-08-31T22:51:22.531Z,1.80
2022-08-31T22:53:51.542Z,4.22
2022-08-31T22:56:27.567Z,2.38
2022-08-31T22:58:56.695Z,1.90
2022-08-31T23:01:28.513Z,2.60
2022-08-31T23:03:57.403Z,2.03
2022-08-31T23:06:26.608Z,2.05
2022-08-31T23:08:55.341Z,3.08
2022-08-31T23:11:23.653Z,1.83
2022-08-31T23:13:57.496Z,3.10
2022-08-31T23:16:37.093Z,1.65
2022-08-31T23:19:30.596Z,2.40
2022-08-31T23:21:58.869Z,2.50
2022-08-31T23:24:31.614Z,2.30
2022-08-31T23:27:04.414Z,2.40
2022-08-31T23:29:40.397Z,3.42
2022-08-31T23:32:11.956Z,2.97
2022-08-31T23:34:40.380Z,2.60
2022-08-31T23:37:08.517Z,2.00
2022-08-31T23:39:37.371Z,2.33
2022-08-31T23:42:04.592Z,2.33
2022-08-31T23:44:31.289Z,2.40
2022-08-31T23:46:59.330Z,2.28
2022-08-31T23:49:26.048Z,2.53
2022-08-31T23:51:52.759Z,6.88
2022-08-31T23:54:21.171Z,4.25
2022-08-31T23:56:48.517Z,3.13
2022-08-31T23:59:19.559Z,2.88
